createdAt,value
2023-03-05T00:02:19.724Z,97471.56
2023-03-05T00:04:50.676Z,97464.25
2023-03-05T00:07:20.898Z,97470.56
2023-03-05T00:09:51.440Z,97470.28
2023-03-05T00:12:24.119Z,97467.47
2023-03-05T00:14:54.883Z,97463.63
2023-03-05T00:17:25.850Z,97468.00
2023-03-05T00:19:57.362Z,97465.03
2023-03-05T00:22:28.350Z,97465.88
2023-03-05T00:25:00.290Z,97458.38
2023-03-05T00:27:32.286Z,97465.56
2023-03-05T00:30:03.097Z,97461.09
2023-03-05T00:32:36.022Z,97462.72
2023-03-05T00:35:07.784Z,97460.41
2023-03-05T00:37:38.328Z,97451.53
2023-03-05T00:40:12.043Z,97457.63
2023-03-05T00:42:45.757Z,97440.31
2023-03-05T00:45:16.369Z,97446.81
2023-03-05T00:47:46.816Z,97446.34
2023-03-05T00:50:17.044Z,97452.16
2023-03-05T00:52:47.517Z,97456.78
2023-03-05T00:55:18.362Z,97454.75
2023-03-05T00:57:50.281Z,97451.25
2023-03-05T01:00:22.186Z,97447.09
2023-03-05T01:02:52.907Z,97445.16
2023-03-05T01:05:23.882Z,97437.38
2023-03-05T01:07:55.733Z,97441.25
2023-03-05T01:10:28.668Z,97433.47
2023-03-05T01:13:01.558Z,97436.66
2023-03-05T01:15:32.150Z,97433.34
2023-03-05T01:18:03.327Z,97435.91
2023-03-05T01:20:33.607Z,97444.03
2023-03-05T01:23:04.169Z,97447.63
2023-03-05T01:25:34.515Z,97442.38
2023-03-05T01:28:06.968Z,97450.19
2023-03-05T01:30:38.638Z,97441.22
2023-03-05T01:33:08.852Z,97435.78
2023-03-05T01:35:39.837Z,97429.91
2023-03-05T01:38:10.481Z,97438.31
2023-03-05T01:40:40.882Z,97448.56
2023-03-05T01:43:27.596Z,97442.38
2023-03-05T01:46:35.567Z,97442.69
2023-03-05T01:49:18.840Z,97444.03
2023-03-05T01:51:59.043Z,97442.88
2023-03-05T01:54:34.082Z,97439.13
2023-03-05T01:57:11.127Z,97452.94
2023-03-05T01:59:44.929Z,97440.56
2023-03-05T02:02:16.900Z,97443.69
2023-03-05T02:04:52.580Z,97448.19
2023-03-05T02:07:24.485Z,97440.13
2023-03-05T02:09:54.852Z,97431.63
2023-03-05T02:12:25.296Z,97439.25
2023-03-05T02:14:59.648Z,97438.47
2023-03-05T02:17:31.277Z,97434.97
2023-03-05T02:20:07.569Z,97436.13
2023-03-05T02:22:39.751Z,97430.34
2023-03-05T02:25:17.883Z,97428.19
2023-03-05T02:27:54.174Z,97431.72
2023-03-05T02:30:24.982Z,97434.34
2023-03-05T02:32:55.016Z,97437.81
2023-03-05T02:35:25.194Z,97431.63
2023-03-05T02:37:56.913Z,97426.81
2023-03-05T02:40:26.925Z,97421.53
2023-03-05T02:42:57.168Z,97421.72
2023-03-05T02:45:27.595Z,97420.81
2023-03-05T02:47:58.704Z,97424.81
2023-03-05T02:50:31.999Z,97419.28
2023-03-05T02:53:04.382Z,97418.63
2023-03-05T02:55:35.175Z,97411.88
2023-03-05T02:58:05.624Z,97420.63
2023-03-05T03:00:38.419Z,97410.53
2023-03-05T03:03:09.099Z,97413.75
2023-03-05T03:05:40.173Z,97414.28
2023-03-05T03:08:12.126Z,97407.88
2023-03-05T03:10:42.532Z,97407.78
2023-03-05T03:13:12.561Z,97399.91
2023-03-05T03:15:43.602Z,97409.19
2023-03-05T03:18:14.383Z,97403.63
2023-03-05T03:20:45.381Z,97398.75
2023-03-05T03:23:17.530Z,97404.16
2023-03-05T03:25:47.658Z,97391.41
2023-03-05T03:28:17.660Z,97401.41
2023-03-05T03:30:47.740Z,97401.38
2023-03-05T03:33:18.744Z,97399.44
2023-03-05T03:35:49.333Z,97398.63
2023-03-05T03:38:21.371Z,97401.44
2023-03-05T03:40:51.920Z,97400.59
2023-03-05T03:43:22.745Z,97395.28
2023-03-05T03:45:52.817Z,97387.88
2023-03-05T03:48:24.020Z,97395.97
2023-03-05T03:50:53.966Z,97400.03
2023-03-05T03:53:26.500Z,97401.31
2023-03-05T03:56:00.870Z,97395.06
2023-03-05T03:58:30.811Z,97398.22
2023-03-05T04:01:01.762Z,97390.34
2023-03-05T04:03:32.250Z,97390.56
2023-03-05T04:06:02.728Z,97384.56
2023-03-05T04:08:35.165Z,97383.44
2023-03-05T04:11:05.675Z,97386.47
2023-03-05T04:13:36.324Z,97381.06
2023-03-05T04:16:08.255Z,97387.50
2023-03-05T04:18:38.802Z,97371.84
2023-03-05T04:21:09.396Z,97376.03
2023-03-05T04:23:42.403Z,97373.75
2023-03-05T04:26:13.097Z,97367.50
2023-03-05T04:28:44.054Z,97367.88
2023-03-05T04:31:15.318Z,97363.13
2023-03-05T04:33:45.569Z,97366.38
2023-03-05T04:36:15.870Z,97366.19
2023-03-05T04:38:48.150Z,97366.69
2023-03-05T04:41:18.619Z,97364.91
2023-03-05T04:43:48.909Z,97363.91
2023-03-05T04:46:18.800Z,97360.50
2023-03-05T04:48:49.076Z,97355.41
2023-03-05T04:51:19.405Z,97355.09
2023-03-05T04:53:50.492Z,97357.63
2023-03-05T04:56:20.777Z,97356.00
2023-03-05T04:58:52.002Z,97358.72
2023-03-05T05:01:22.762Z,97350.34
2023-03-05T05:03:53.235Z,97352.06
2023-03-05T05:06:23.555Z,97346.91
2023-03-05T05:08:56.082Z,97346.78
2023-03-05T05:11:26.928Z,97345.13
2023-03-05T05:13:57.186Z,97347.66
2023-03-05T05:16:27.469Z,97349.47
2023-03-05T05:18:57.826Z,97351.00
2023-03-05T05:21:28.141Z,97352.41
2023-03-05T05:24:00.985Z,97348.44
2023-03-05T05:26:31.355Z,97347.59
2023-03-05T05:29:01.391Z,97345.88
2023-03-05T05:31:32.231Z,97346.25
2023-03-05T05:34:03.824Z,97341.53
2023-03-05T05:36:34.391Z,97340.91
2023-03-05T05:39:07.052Z,97342.69
2023-03-05T05:41:37.561Z,97348.53
2023-03-05T05:44:08.491Z,97353.53
2023-03-05T05:46:39.017Z,97351.91
2023-03-05T05:49:09.641Z,97350.28
2023-03-05T05:51:40.160Z,97342.34
2023-03-05T05:54:14.636Z,97347.72
2023-03-05T05:56:45.276Z,97357.59
2023-03-05T05:59:16.405Z,97345.91
2023-03-05T06:01:47.043Z,97356.00
2023-03-05T06:04:18.268Z,97353.81
2023-03-05T06:06:48.741Z,97361.81
2023-03-05T06:09:20.450Z,97358.13
2023-03-05T06:11:50.624Z,97356.47
2023-03-05T06:14:21.014Z,97356.75
2023-03-05T06:16:51.581Z,97366.31
2023-03-05T06:19:22.589Z,97367.53
2023-03-05T06:21:53.335Z,97362.38
2023-03-05T06:24:25.436Z,97368.94
2023-03-05T06:26:55.906Z,97366.94
2023-03-05T06:29:26.011Z,97368.09
2023-03-05T06:31:56.537Z,97360.75
2023-03-05T06:34:26.789Z,97362.13
2023-03-05T06:36:57.704Z,97353.63
2023-03-05T06:39:31.155Z,97356.00
2023-03-05T06:42:02.185Z,97357.91
2023-03-05T06:44:32.304Z,97360.16
2023-03-05T06:47:03.604Z,97353.66
2023-03-05T06:49:33.570Z,97351.22
2023-03-05T06:52:04.209Z,97351.94
2023-03-05T06:54:36.447Z,97360.84
2023-03-05T06:57:07.464Z,97356.56
2023-03-05T06:59:37.994Z,97369.38
2023-03-05T07:02:10.752Z,97358.31
2023-03-05T07:04:41.143Z,97363.53
2023-03-05T07:07:11.630Z,97352.41
2023-03-05T07:09:46.289Z,97354.50
2023-03-05T07:12:16.293Z,97350.38
2023-03-05T07:14:47.105Z,97343.41
2023-03-05T07:17:17.384Z,97346.31
2023-03-05T07:19:47.717Z,97345.47
2023-03-05T07:22:18.909Z,97347.91
2023-03-05T07:24:51.427Z,97347.81
2023-03-05T07:27:23.708Z,97350.25
2023-03-05T07:29:53.937Z,97348.09
2023-03-05T07:32:24.311Z,97349.41
2023-03-05T07:34:54.386Z,97345.84
2023-03-05T07:37:24.849Z,97341.84
2023-03-05T07:39:56.798Z,97343.34
2023-03-05T07:42:28.015Z,97337.22
2023-03-05T07:44:59.461Z,97335.84
2023-03-05T07:47:31.310Z,97347.03
2023-03-05T07:50:01.989Z,97339.13
2023-03-05T07:52:32.864Z,97322.81
2023-03-05T07:55:04.333Z,97329.00
2023-03-05T07:57:35.886Z,97328.41
2023-03-05T08:00:08.056Z,97331.34
2023-03-05T08:02:39.520Z,97317.91
2023-03-05T08:05:10.389Z,97319.34
2023-03-05T08:07:41.216Z,97318.38
2023-03-05T08:10:14.035Z,97317.22
2023-03-05T08:12:44.566Z,97314.94
2023-03-05T08:15:15.065Z,97315.81
2023-03-05T08:17:46.953Z,97312.66
2023-03-05T08:20:17.090Z,97314.84
2023-03-05T08:22:47.990Z,97316.47
2023-03-05T08:25:20.719Z,97314.88
2023-03-05T08:27:51.446Z,97312.94
2023-03-05T08:30:27.563Z,97313.22
2023-03-05T08:32:59.259Z,97305.28
2023-03-05T08:35:30.098Z,97301.06
2023-03-05T08:38:02.951Z,97301.00
2023-03-05T08:40:35.560Z,97298.63
2023-03-05T08:43:07.622Z,97299.53
2023-03-05T08:45:37.509Z,97302.53
2023-03-05T08:48:09.859Z,97306.25
2023-03-05T08:50:42.256Z,97293.56
2023-03-05T08:53:13.072Z,97292.84
2023-03-05T08:55:45.423Z,97285.09
2023-03-05T08:58:16.176Z,97292.06
2023-03-05T09:00:48.801Z,97288.44
2023-03-05T09:03:23.307Z,97290.00
2023-03-05T09:05:53.633Z,97291.50
2023-03-05T09:08:25.471Z,97288.66
2023-03-05T09:10:58.537Z,97284.78
2023-03-05T09:13:30.968Z,97281.44
2023-03-05T09:16:03.354Z,97276.59
2023-03-05T09:18:36.978Z,97274.53
2023-03-05T09:21:08.737Z,97274.09
2023-03-05T09:23:40.120Z,97273.34
2023-03-05T09:26:13.731Z,97272.03
2023-03-05T09:28:45.271Z,97264.38
2023-03-05T09:31:17.011Z,97264.34
2023-03-05T09:33:48.698Z,97263.03
2023-03-05T09:36:25.634Z,97262.53
2023-03-05T09:38:56.500Z,97254.56
2023-03-05T09:41:38.029Z,97264.44
2023-03-05T09:44:15.819Z,97255.94
2023-03-05T09:46:53.814Z,97253.38
2023-03-05T09:49:33.624Z,97242.72
2023-03-05T09:52:09.357Z,97243.09
2023-03-05T09:54:41.780Z,97239.28
2023-03-05T09:57:19.065Z,97239.28
2023-03-05T09:59:52.335Z,97241.97
2023-03-05T10:02:28.430Z,97232.00
2023-03-05T10:05:04.908Z,97234.28
2023-03-05T10:07:39.096Z,97230.06
2023-03-05T10:10:14.691Z,97228.50
2023-03-05T10:12:47.981Z,97220.34
2023-03-05T10:15:25.255Z,97222.28
2023-03-05T10:18:13.047Z,97210.00
2023-03-05T10:21:01.997Z,97207.25
2023-03-05T10:23:52.612Z,97201.03
2023-03-05T10:26:56.682Z,97202.78
2023-03-05T10:30:03.153Z,97202.31
2023-03-05T10:32:44.978Z,97187.47
2023-03-05T10:35:31.288Z,97190.25
2023-03-05T10:38:38.309Z,97182.22
2023-03-05T10:41:18.478Z,97179.59
2023-03-05T10:43:53.399Z,97191.00
2023-03-05T10:46:26.615Z,97175.84
2023-03-05T10:49:03.184Z,97173.25
2023-03-05T10:51:38.613Z,97168.38
2023-03-05T10:54:17.294Z,97166.19
2023-03-05T10:56:48.169Z,97158.34
2023-03-05T10:59:19.416Z,97145.19
2023-03-05T11:02:05.558Z,97136.47
2023-03-05T11:04:39.922Z,97137.41
2023-03-05T11:07:26.622Z,97133.50
2023-03-05T11:10:07.915Z,97117.25
2023-03-05T11:12:50.877Z,97109.81
2023-03-05T11:15:33.793Z,97113.16
2023-03-05T11:18:32.376Z,97101.41
2023-03-05T11:21:21.866Z,97095.78
2023-03-05T11:24:14.452Z,97084.88
2023-03-05T11:26:53.620Z,97081.63
2023-03-05T11:29:27.683Z,97082.34
2023-03-05T11:31:59.806Z,97077.00
2023-03-05T11:34:36.635Z,97074.09
2023-03-05T11:37:12.566Z,97063.47
2023-03-05T11:39:43.634Z,97060.69
2023-03-05T11:42:17.672Z,97054.06
2023-03-05T11:44:50.547Z,97055.59
2023-03-05T11:47:26.643Z,97048.66
2023-03-05T11:50:02.488Z,97037.97
2023-03-05T11:52:50.461Z,97038.38
2023-03-05T11:55:23.243Z,97033.53
2023-03-05T11:58:03.894Z,97036.03
2023-03-05T12:00:36.059Z,97026.84
2023-03-05T12:03:11.855Z,97021.53
2023-03-05T12:05:43.583Z,97020.25
2023-03-05T12:08:20.693Z,97011.59
2023-03-05T12:10:53.539Z,97007.03
2023-03-05T12:13:30.980Z,97004.84
2023-03-05T12:16:11.044Z,97001.78
2023-03-05T12:18:53.692Z,96995.59
2023-03-05T12:21:37.114Z,96999.03
2023-03-05T12:24:39.921Z,96978.22
2023-03-05T12:27:18.734Z,96979.72
2023-03-05T12:29:51.215Z,96978.31
2023-03-05T12:33:04.228Z,96979.06
2023-03-05T12:35:39.899Z,96965.69
2023-03-05T12:38:32.475Z,96963.06
2023-03-05T12:41:40.514Z,96949.78
2023-03-05T12:44:21.361Z,96943.69
2023-03-05T12:47:23.927Z,96950.47
2023-03-05T12:49:56.966Z,96944.25
2023-03-05T12:52:31.974Z,96934.94
2023-03-05T12:55:17.708Z,96936.50
2023-03-05T12:57:55.902Z,96925.34
2023-03-05T13:00:33.795Z,96932.97
2023-03-05T13:03:11.965Z,96927.84
2023-03-05T13:05:49.870Z,96927.28
2023-03-05T13:08:25.867Z,96925.50
2023-03-05T13:10:57.547Z,96916.97
2023-03-05T13:13:31.708Z,96918.47
2023-03-05T13:16:01.634Z,96907.91
2023-03-05T13:18:33.538Z,96911.16
2023-03-05T13:21:06.512Z,96910.03
2023-03-05T13:23:37.857Z,96907.56
2023-03-05T13:26:16.978Z,96905.50
2023-03-05T13:29:07.155Z,96897.63
2023-03-05T13:31:41.509Z,96897.28
2023-03-05T13:34:17.990Z,96893.50
2023-03-05T13:36:51.752Z,96892.53
2023-03-05T13:39:26.332Z,96892.53
2023-03-05T13:42:03.820Z,96886.09
2023-03-05T13:44:39.253Z,96878.16
2023-03-05T13:47:12.059Z,96879.03
2023-03-05T13:50:01.174Z,96873.81
2023-03-05T13:52:35.582Z,96877.06
2023-03-05T13:55:14.726Z,96867.88
2023-03-05T13:57:47.887Z,96864.59
2023-03-05T14:00:33.566Z,96864.09
2023-03-05T14:03:13.703Z,96863.06
2023-03-05T14:05:47.390Z,96867.34
2023-03-05T14:08:22.938Z,96867.47
2023-03-05T14:10:54.138Z,96858.47
2023-03-05T14:13:28.779Z,96852.41
2023-03-05T14:16:15.080Z,96853.19
2023-03-05T14:18:56.714Z,96859.00
2023-03-05T14:21:28.999Z,96851.25
2023-03-05T14:24:00.133Z,96849.31
2023-03-05T14:26:33.698Z,96847.09
2023-03-05T14:29:06.115Z,96850.41
2023-03-05T14:31:49.656Z,96836.13
2023-03-05T14:34:25.388Z,96841.28
2023-03-05T14:36:59.494Z,96836.50
2023-03-05T14:39:33.709Z,96829.28
2023-03-05T14:42:33.319Z,96831.84
2023-03-05T14:45:13.884Z,96829.88
2023-03-05T14:47:46.509Z,96829.81
2023-03-05T14:50:18.830Z,96821.81
2023-03-05T14:52:50.306Z,96833.78
2023-03-05T14:55:24.438Z,96832.16
2023-03-05T14:57:56.260Z,96835.03
2023-03-05T15:00:28.670Z,96827.56
2023-03-05T15:03:01.099Z,96832.47
2023-03-05T15:05:32.435Z,96822.88
2023-03-05T15:08:02.954Z,96826.00
2023-03-05T15:10:34.009Z,96828.13
2023-03-05T15:13:04.706Z,96829.91
2023-03-05T15:15:35.867Z,96817.19
2023-03-05T15:18:07.944Z,96819.91
2023-03-05T15:20:40.466Z,96820.56
2023-03-05T15:23:13.001Z,96816.84
2023-03-05T15:25:44.925Z,96818.72
2023-03-05T15:28:16.075Z,96813.47
2023-03-05T15:30:49.376Z,96813.31
2023-03-05T15:33:23.984Z,96810.06
2023-03-05T15:35:54.586Z,96809.53
2023-03-05T15:38:26.441Z,96813.31
2023-03-05T15:40:58.527Z,96807.34
2023-03-05T15:43:30.877Z,96811.50
2023-03-05T15:46:01.809Z,96812.19
2023-03-05T15:48:34.477Z,96820.75
2023-03-05T15:51:08.065Z,96818.06
2023-03-05T15:53:38.920Z,96821.38
2023-03-05T15:56:10.363Z,96821.34
2023-03-05T15:58:41.191Z,96826.28
2023-03-05T16:01:11.992Z,96824.53
2023-03-05T16:03:44.617Z,96824.91
2023-03-05T16:06:16.611Z,96822.78
2023-03-05T16:08:47.252Z,96828.84
2023-03-05T16:11:18.729Z,96830.88
2023-03-05T16:13:48.424Z,96836.13
2023-03-05T16:16:19.250Z,96832.16
2023-03-05T16:18:50.861Z,96835.59
2023-03-05T16:21:21.792Z,96842.69
2023-03-05T16:23:52.035Z,96840.34
2023-03-05T16:26:22.395Z,96840.88
2023-03-05T16:28:52.561Z,96845.09
2023-03-05T16:31:23.478Z,96845.38
2023-03-05T16:33:55.813Z,96844.97
2023-03-05T16:36:28.361Z,96845.31
2023-03-05T16:39:00.699Z,96848.34
2023-03-05T16:41:30.900Z,96851.13
2023-03-05T16:44:01.580Z,96843.97
2023-03-05T16:46:34.980Z,96843.53
2023-03-05T16:49:09.293Z,96846.34
2023-03-05T16:51:41.548Z,96846.31
2023-03-05T16:54:12.302Z,96846.44
2023-03-05T16:56:42.733Z,96841.84
2023-03-05T16:59:13.803Z,96848.56
2023-03-05T17:01:45.471Z,96851.06
2023-03-05T17:04:17.829Z,96853.81
2023-03-05T17:06:49.506Z,96851.59
2023-03-05T17:09:24.530Z,96859.28
2023-03-05T17:11:54.566Z,96858.06
2023-03-05T17:14:28.924Z,96862.28
2023-03-05T17:17:01.975Z,96855.84
2023-03-05T17:19:33.968Z,96862.53
2023-03-05T17:22:04.619Z,96854.38
2023-03-05T17:24:35.710Z,96862.19
2023-03-05T17:27:05.524Z,96865.69
2023-03-05T17:29:35.930Z,96866.28
2023-03-05T17:32:06.736Z,96871.81
2023-03-05T17:34:38.855Z,96876.34
2023-03-05T17:37:09.429Z,96875.78
2023-03-05T17:39:41.381Z,96875.50
2023-03-05T17:42:11.284Z,96883.38
2023-03-05T17:44:41.516Z,96881.97
2023-03-05T17:47:21.295Z,96877.19
2023-03-05T17:49:53.072Z,96882.97
2023-03-05T17:52:23.095Z,96882.59
2023-03-05T17:54:55.041Z,96884.66
2023-03-05T17:57:25.582Z,96885.63
2023-03-05T17:59:55.892Z,96887.41
2023-03-05T18:02:26.364Z,96884.06
2023-03-05T18:04:59.211Z,96894.72
2023-03-05T18:07:30.281Z,96891.44
2023-03-05T18:10:01.096Z,96890.66
2023-03-05T18:12:31.321Z,96882.56
2023-03-05T18:15:02.732Z,96883.31
2023-03-05T18:17:33.977Z,96892.28
2023-03-05T18:20:07.696Z,96891.44
2023-03-05T18:22:37.833Z,96894.56
2023-03-05T18:25:09.556Z,96891.19
2023-03-05T18:27:40.846Z,96886.22
2023-03-05T18:30:13.560Z,96893.94
2023-03-05T18:32:45.545Z,96900.84
2023-03-05T18:35:18.241Z,96903.97
2023-03-05T18:37:48.420Z,96904.06
2023-03-05T18:40:20.394Z,96902.19
2023-03-05T18:42:52.618Z,96901.13
2023-03-05T18:45:23.962Z,96894.00
2023-03-05T18:47:54.590Z,96899.28
2023-03-05T18:50:28.677Z,96898.81
2023-03-05T18:53:01.381Z,96899.81
2023-03-05T18:55:32.736Z,96905.09
2023-03-05T18:58:03.327Z,96898.63
2023-03-05T19:00:35.840Z,96909.06
2023-03-05T19:03:07.587Z,96907.25
2023-03-05T19:05:39.537Z,96909.03
2023-03-05T19:08:09.560Z,96900.59
2023-03-05T19:10:40.465Z,96906.63
2023-03-05T19:13:23.233Z,96901.72
2023-03-05T19:15:54.288Z,96905.00
2023-03-05T19:18:49.907Z,96902.00
2023-03-05T19:21:21.966Z,96911.22
2023-03-05T19:23:52.604Z,96909.75
2023-03-05T19:26:23.130Z,96912.22
2023-03-05T19:28:53.596Z,96907.94
2023-03-05T19:31:24.579Z,96907.13
2023-03-05T19:33:55.658Z,96913.03
2023-03-05T19:36:28.835Z,96905.63
2023-03-05T19:39:00.539Z,96914.59
2023-03-05T19:41:32.328Z,96919.69
2023-03-05T19:44:02.862Z,96906.81
2023-03-05T19:46:34.873Z,96906.28
2023-03-05T19:49:06.221Z,96905.50
2023-03-05T19:51:40.175Z,96903.00
2023-03-05T19:54:10.385Z,96903.88
2023-03-05T19:56:41.479Z,96897.06
2023-03-05T19:59:11.957Z,96895.00
2023-03-05T20:01:42.849Z,96898.91
2023-03-05T20:04:16.365Z,96899.63
2023-03-05T20:06:48.793Z,96903.97
2023-03-05T20:09:20.375Z,96899.09
2023-03-05T20:11:51.933Z,96904.19
2023-03-05T20:14:22.090Z,96898.50
2023-03-05T20:16:53.388Z,96904.31
2023-03-05T20:19:23.872Z,96901.66
2023-03-05T20:21:56.090Z,96901.66
2023-03-05T20:24:26.643Z,96905.13
2023-03-05T20:26:57.562Z,96907.78
2023-03-05T20:29:27.946Z,96904.72
2023-03-05T20:32:00.442Z,96905.50
2023-03-05T20:34:31.762Z,96911.28
2023-03-05T20:37:05.261Z,96908.25
2023-03-05T20:39:36.384Z,96902.41
2023-03-05T20:42:06.644Z,96895.47
2023-03-05T20:44:36.927Z,96901.66
2023-03-05T20:47:49.037Z,96897.00
2023-03-05T20:50:22.217Z,96900.47
2023-03-05T20:52:55.053Z,96900.00
2023-03-05T20:55:29.154Z,96906.16
2023-03-05T20:58:00.128Z,96906.06
2023-03-05T21:00:31.876Z,96904.34
2023-03-05T21:03:03.236Z,96904.06
2023-03-05T21:05:34.809Z,96907.09
2023-03-05T21:08:07.387Z,96901.09
2023-03-05T21:10:39.286Z,96899.91
2023-03-05T21:13:09.704Z,96898.72
2023-03-05T21:15:43.402Z,96897.16
2023-03-05T21:18:14.350Z,96893.38
2023-03-05T21:20:45.043Z,96899.91
2023-03-05T21:23:17.859Z,96896.94
2023-03-05T21:25:48.853Z,96888.50
2023-03-05T21:28:19.273Z,96888.78
2023-03-05T21:30:52.418Z,96892.16
2023-03-05T21:33:24.317Z,96891.19
2023-03-05T21:35:56.841Z,96888.09
2023-03-05T21:38:30.660Z,96886.53
2023-03-05T21:41:02.404Z,96888.38
2023-03-05T21:43:33.624Z,96886.13
2023-03-05T21:46:04.813Z,96882.97
2023-03-05T21:48:35.551Z,96882.69
2023-03-05T21:51:23.497Z,96890.13
2023-03-05T21:53:54.971Z,96880.28
2023-03-05T21:56:25.598Z,96884.25
2023-03-05T21:58:55.883Z,96882.25
2023-03-05T22:01:27.200Z,96881.13
2023-03-05T22:03:57.627Z,96880.25
2023-03-05T22:06:27.774Z,96882.56
2023-03-05T22:09:01.620Z,96874.97
2023-03-05T22:11:32.728Z,96874.25
2023-03-05T22:14:04.487Z,96877.25
2023-03-05T22:16:35.000Z,96877.25
2023-03-05T22:19:05.633Z,96869.53
2023-03-05T22:21:36.287Z,96870.41
2023-03-05T22:24:09.856Z,96869.47
2023-03-05T22:26:40.937Z,96863.31
2023-03-05T22:29:20.888Z,96867.28
2023-03-05T22:31:50.616Z,96860.72
2023-03-05T22:34:21.326Z,96869.66
2023-03-05T22:36:52.264Z,96867.78
2023-03-05T22:39:26.610Z,96868.47
2023-03-05T22:41:57.447Z,96865.81
2023-03-05T22:44:28.641Z,96873.50
2023-03-05T22:46:59.470Z,96876.50
2023-03-05T22:49:29.784Z,96876.41
2023-03-05T22:52:00.757Z,96876.53
2023-03-05T22:54:34.749Z,96871.66
2023-03-05T22:57:05.542Z,96876.50
2023-03-05T22:59:36.173Z,96885.09
2023-03-05T23:02:07.873Z,96872.81
2023-03-05T23:04:49.490Z,96873.09
2023-03-05T23:07:22.189Z,96866.44
2023-03-05T23:09:59.536Z,96867.44
2023-03-05T23:12:31.860Z,96865.91
2023-03-05T23:15:03.879Z,96863.59
2023-03-05T23:17:34.404Z,96860.13
2023-03-05T23:20:08.677Z,96859.00
2023-03-05T23:22:38.509Z,96855.34
2023-03-05T23:25:12.257Z,96860.50
2023-03-05T23:27:43.412Z,96858.53
2023-03-05T23:30:20.590Z,96865.00
2023-03-05T23:32:53.701Z,96851.63
2023-03-05T23:35:26.744Z,96855.19
2023-03-05T23:37:58.068Z,96851.38
2023-03-05T23:40:32.910Z,96852.91
2023-03-05T23:43:02.898Z,96848.56
2023-03-05T23:45:33.093Z,96844.06
2023-03-05T23:48:03.688Z,96839.03
2023-03-05T23:50:36.642Z,96842.91
2023-03-05T23:53:08.132Z,96849.03
2023-03-05T23:55:43.322Z,96846.00
2023-03-05T23:58:14.963Z,96839.84
